Time;durP1;ratioP1;P1;durP2;ratioP2;P2;SDS_P1;SDS_P2;PMS_P1;PMS_P2;Temp;Humidity;BMP_temperature;BMP_pressure;BME280_temperature;BME280_humidity;BME280_pressure;Samples;Min_cycle;Max_cycle;Signal;HPM_P1;HPM_P2
2023/05/06 00:02:15;;;;;;;;;18.40;17.00;;;;;15.13;46.85;99006.63;5997542;29;97626;-62
2023/05/06 00:05:18;;;;;;;;;12.75;12.75;;;;;15.02;47.48;99003.97;5998468;29;96422;-62
2023/05/06 00:08:22;;;;;;;;;13.00;12.40;;;;;14.98;47.52;99005.53;5997188;29;96935;-62
2023/05/06 00:11:26;;;;;;;;;15.00;13.40;;;;;15.07;46.84;99017.63;5979015;29;96528;-63
2023/05/06 00:14:29;;;;;;;;;14.00;14.00;;;;;14.91;47.75;99019.28;5974036;29;96295;-63
2023/05/06 00:17:34;;;;;;;;;13.25;13.25;;;;;14.99;47.34;99016.16;5974636;29;96233;-63
2023/05/06 00:20:38;;;;;;;;;13.00;13.00;;;;;14.98;47.20;99013.69;5974779;29;96352;-63
2023/05/06 00:23:41;;;;;;;;;10.40;10.00;;;;;15.00;47.09;99015.06;5972493;29;98417;-62
2023/05/06 00:26:44;;;;;;;;;10.80;9.80;;;;;14.90;47.29;99008.69;5986285;29;96382;-63
2023/05/06 00:29:47;;;;;;;;;13.00;12.00;;;;;14.90;47.41;99004.06;5996730;29;96850;-63
2023/05/06 00:32:52;;;;;;;;;11.00;10.40;;;;;14.87;47.63;98995.59;6011710;29;96296;-63
2023/05/06 00:35:55;;;;;;;;;14.00;14.00;;;;;14.83;48.00;99003.41;5996149;29;96797;-62
2023/05/06 00:38:59;;;;;;;;;13.60;12.60;;;;;14.77;47.93;98996.25;5996588;29;96934;-63
2023/05/06 00:42:02;;;;;;;;;14.80;13.00;;;;;14.57;48.59;98999.44;5995846;29;98604;-62
2023/05/06 00:45:07;;;;;;;;;15.50;15.50;;;;;14.48;48.58;98975.66;5996252;29;96320;-63
2023/05/06 00:48:12;;;;;;;;;17.00;15.25;;;;;14.45;48.85;98992.44;5996968;29;96336;-63
2023/05/06 00:51:15;;;;;;;;;14.00;13.00;;;;;14.46;48.63;98977.81;5996182;29;96309;-63
2023/05/06 00:54:19;;;;;;;;;14.60;14.00;;;;;14.50;48.45;98979.78;5995300;29;96530;-63
2023/05/06 00:57:23;;;;;;;;;14.00;13.50;;;;;14.51;48.67;98975.19;5991848;29;96279;-63
2023/05/06 01:00:27;;;;;;;;;14.60;14.00;;;;;14.51;48.58;98972.47;5991803;29;96242;-63
2023/05/06 01:03:31;;;;;;;;;15.00;13.60;;;;;14.47;48.72;98979.44;5999066;29;98562;-62
2023/05/06 01:06:42;;;;;;;;;15.00;14.00;;;;;14.45;48.77;98976.97;5993957;29;97003;-63
2023/05/06 01:09:54;;;;;;;;;13.00;12.60;;;;;14.35;49.11;98974.06;5993279;29;96875;-63
2023/05/06 01:13:05;;;;;;;;;12.00;12.00;;;;;14.39;48.99;98988.81;5993633;29;97277;-63
2023/05/06 01:16:12;;;;;;;;;12.60;12.60;;;;;14.41;49.14;98975.00;5993548;29;96274;-63
2023/05/06 01:19:35;;;;;;;;;14.40;14.00;;;;;14.33;49.56;98976.16;5993858;29;96321;-62
2023/05/06 01:22:39;;;;;;;;;14.60;14.60;;;;;14.38;49.13;98978.19;5994080;29;96746;-63
2023/05/06 01:25:44;;;;;;;;;12.20;12.20;;;;;14.30;48.99;98961.22;5993641;29;96861;-63
2023/05/06 01:28:47;;;;;;;;;16.00;15.00;;;;;14.40;48.95;98976.88;6008389;29;96750;-63
2023/05/06 01:31:55;;;;;;;;;13.20;12.60;;;;;14.31;49.32;98972.91;5993242;29;96922;-63
2023/05/06 01:35:10;;;;;;;;;13.00;13.00;;;;;14.14;50.10;98974.72;5995791;29;96351;-63
2023/05/06 01:38:22;;;;;;;;;14.80;14.40;;;;;14.06;50.54;98973.25;5994221;29;96862;-63
2023/05/06 01:41:30;;;;;;;;;16.00;15.00;;;;;14.06;50.22;98978.66;5993800;29;96267;-63
2023/05/06 01:44:37;;;;;;;;;15.80;14.80;;;;;14.10;50.35;98979.81;5993321;29;96481;-63
2023/05/06 01:47:41;;;;;;;;;15.50;13.50;;;;;14.04;50.36;98969.13;5991635;29;96706;-62
2023/05/06 01:50:45;;;;;;;;;12.60;12.00;;;;;14.02;50.19;98982.94;5993326;29;96383;-62
2023/05/06 01:53:49;;;;;;;;;16.40;16.40;;;;;14.08;50.44;98972.97;5992651;29;96230;-63
2023/05/06 01:56:53;;;;;;;;;15.40;15.00;;;;;14.02;50.26;98976.69;5992663;29;96326;-63
2023/05/06 01:59:57;;;;;;;;;13.50;12.50;;;;;14.01;50.41;98978.56;6006617;29;96074;-63
2023/05/06 02:03:00;;;;;;;;;18.40;16.00;;;;;14.01;50.57;98975.03;5991378;29;96268;-63
2023/05/06 02:06:04;;;;;;;;;14.20;14.20;;;;;13.97;50.63;98973.88;5975042;29;98645;-63
2023/05/06 02:09:11;;;;;;;;;13.33;12.33;;;;;13.94;50.84;98971.63;6005976;29;96304;-62
2023/05/06 02:12:20;;;;;;;;;13.00;12.60;;;;;14.00;50.62;98973.38;5982630;29;96519;-63
2023/05/06 02:15:23;;;;;;;;;14.50;14.50;;;;;13.99;50.50;98969.84;5967241;29;96312;-62
2023/05/06 02:18:27;;;;;;;;;13.00;12.60;;;;;13.88;50.67;98982.38;5983861;29;96292;-63
2023/05/06 02:21:31;;;;;;;;;13.40;12.20;;;;;13.75;50.91;98979.94;5998347;29;96374;-62
2023/05/06 02:24:35;;;;;;;;;13.00;12.00;;;;;13.68;51.09;98973.81;5997895;29;96255;-62
2023/05/06 02:27:39;;;;;;;;;11.00;10.00;;;;;13.72;51.22;98975.00;5966844;29;96690;-63
2023/05/06 02:30:43;;;;;;;;;13.50;12.50;;;;;13.75;50.94;98974.53;5994733;29;96238;-62
2023/05/06 02:33:46;;;;;;;;;14.00;13.00;;;;;13.74;50.97;98972.88;5993105;29;96899;-63
2023/05/06 02:36:49;;;;;;;;;12.20;11.80;;;;;13.74;51.10;98967.44;5957297;29;1234825;-62
2023/05/06 02:39:52;;;;;;;;;13.00;11.00;;;;;13.73;51.08;98965.81;5972830;29;96272;-63
2023/05/06 02:42:57;;;;;;;;;12.40;11.00;;;;;13.75;51.04;98962.84;5994735;29;98647;-63
2023/05/06 02:46:00;;;;;;;;;10.00;10.00;;;;;13.71;51.43;98961.69;5998269;29;96246;-62
2023/05/06 02:49:04;;;;;;;;;14.00;14.00;;;;;13.64;51.52;98958.28;5994883;29;98461;-62
2023/05/06 02:52:07;;;;;;;;;16.00;14.40;;;;;13.60;51.70;98949.00;6003761;29;96325;-62
2023/05/06 02:55:11;;;;;;;;;16.00;15.00;;;;;13.66;51.58;98956.16;6001731;29;96727;-62
2023/05/06 02:58:16;;;;;;;;;13.00;11.00;;;;;13.61;51.77;98959.59;6001265;29;96799;-62
2023/05/06 03:01:19;;;;;;;;;16.00;15.00;;;;;13.62;51.81;98946.88;5970166;29;96729;-62
2023/05/06 03:04:22;;;;;;;;;16.40;15.40;;;;;13.65;51.56;98954.53;5971864;29;96217;-62
2023/05/06 03:07:25;;;;;;;;;15.40;14.00;;;;;13.63;51.58;98951.25;5956235;29;98416;-62
2023/05/06 03:10:29;;;;;;;;;13.25;13.25;;;;;13.64;51.66;98950.16;5983495;29;96820;-63
2023/05/06 03:13:35;;;;;;;;;14.60;13.60;;;;;13.66;51.70;98956.16;5995241;29;96249;-63
2023/05/06 03:16:38;;;;;;;;;15.50;15.25;;;;;13.54;52.05;98958.91;6011938;29;96298;-63
2023/05/06 03:19:43;;;;;;;;;14.40;14.40;;;;;13.56;52.19;98962.22;6012213;29;98501;-64
2023/05/06 03:22:48;;;;;;;;;14.00;13.00;;;;;13.56;51.97;98948.66;5996728;29;96356;-63
2023/05/06 03:25:53;;;;;;;;;12.40;12.40;;;;;13.55;52.12;98946.19;5994224;29;96131;-63
2023/05/06 03:28:58;;;;;;;;;15.00;13.75;;;;;13.44;52.47;98945.97;6003950;29;96294;-63
2023/05/06 03:32:03;;;;;;;;;13.00;13.00;;;;;13.31;52.90;98938.13;6004113;29;96324;-63
2023/05/06 03:35:12;;;;;;;;;12.00;12.00;;;;;13.52;52.44;98943.97;5971816;29;96944;-63
2023/05/06 03:38:18;;;;;;;;;11.40;11.00;;;;;13.56;52.58;98943.25;5957125;29;98878;-63
2023/05/06 03:41:31;;;;;;;;;14.00;13.00;;;;;13.60;52.12;98944.41;5956817;29;96690;-62
2023/05/06 03:44:36;;;;;;;;;13.00;12.00;;;;;13.58;52.53;98953.84;6003466;29;96322;-63
2023/05/06 03:47:40;;;;;;;;;13.00;12.00;;;;;13.63;52.27;98960.19;5972825;29;96357;-62
2023/05/06 03:50:45;;;;;;;;;13.80;11.80;;;;;13.62;52.55;98946.88;5957631;29;98622;-63
2023/05/06 03:53:49;;;;;;;;;11.50;11.00;;;;;13.46;53.00;98953.88;5994622;29;96831;-62
2023/05/06 03:56:55;;;;;;;;;11.00;10.00;;;;;13.47;52.64;98960.94;5980585;29;96661;-61
2023/05/06 04:00:00;;;;;;;;;12.40;12.00;;;;;13.49;52.92;98958.00;5994645;29;96533;-63
2023/05/06 04:03:05;;;;;;;;;12.00;12.00;;;;;13.49;53.04;98968.84;5994126;29;96349;-63
2023/05/06 04:06:17;;;;;;;;;11.25;10.25;;;;;13.58;52.76;98956.56;5995559;29;96256;-63
2023/05/06 04:09:20;;;;;;;;;10.60;10.20;;;;;13.54;53.04;98958.06;5977896;29;96971;-63
2023/05/06 04:12:26;;;;;;;;;10.00;9.25;;;;;13.56;52.92;98964.91;5994645;29;96300;-63
2023/05/06 04:15:33;;;;;;;;;10.40;10.40;;;;;13.65;52.84;98966.19;6006274;29;96375;-61
2023/05/06 04:18:38;;;;;;;;;10.00;9.25;;;;;13.73;52.81;98965.00;5948099;29;98438;-61
2023/05/06 04:21:46;;;;;;;;;11.00;9.33;;;;;13.73;52.92;98962.28;5993297;29;96259;-61
2023/05/06 04:24:51;;;;;;;;;12.40;9.60;;;;;14.00;52.18;98970.66;5993679;29;96385;-61
2023/05/06 04:27:55;;;;;;;;;10.00;9.80;;;;;14.01;52.33;98967.72;6001197;29;96305;-62
2023/05/06 04:31:01;;;;;;;;;10.00;10.00;;;;;14.08;52.11;98981.13;5975488;29;97344;-62
2023/05/06 04:34:15;;;;;;;;;11.60;11.00;;;;;14.17;51.96;98974.28;5981668;29;96725;-62
2023/05/06 04:37:20;;;;;;;;;12.75;11.75;;;;;14.29;51.62;98972.31;5996889;29;96457;-61
2023/05/06 04:40:28;;;;;;;;;13.00;12.00;;;;;14.28;51.45;98976.09;5999272;29;96248;-61
2023/05/06 04:43:32;;;;;;;;;10.75;9.00;;;;;14.31;51.35;98973.72;5982417;29;96393;-62
2023/05/06 04:46:46;;;;;;;;;10.00;10.00;;;;;14.31;51.44;98978.31;5973728;29;97274;-61
2023/05/06 04:49:51;;;;;;;;;11.20;11.20;;;;;14.22;51.79;98985.22;5959957;29;96646;-61
2023/05/06 04:52:55;;;;;;;;;12.60;11.60;;;;;14.42;51.02;98980.16;5969681;29;96818;-61
2023/05/06 04:55:59;;;;;;;;;10.60;10.00;;;;;14.50;51.41;98970.81;5972520;29;96914;-62
2023/05/06 04:59:02;;;;;;;;;12.40;10.80;;;;;14.64;50.41;98977.56;5978971;29;96613;-62
2023/05/06 05:02:08;;;;;;;;;11.00;11.00;;;;;14.67;50.37;98972.47;5974848;29;96286;-61
2023/05/06 05:05:12;;;;;;;;;10.00;9.00;;;;;14.78;50.36;98973.47;6002960;29;96281;-61
2023/05/06 05:08:17;;;;;;;;;12.00;12.00;;;;;14.80;50.06;98960.47;6001174;29;96328;-61
2023/05/06 05:11:20;;;;;;;;;11.00;10.00;;;;;14.76;50.33;98945.72;6006709;29;96248;-61
2023/05/06 05:14:24;;;;;;;;;14.67;13.67;;;;;14.75;50.43;98941.41;5995987;29;96266;-61
2023/05/06 05:17:28;;;;;;;;;11.80;10.80;;;;;14.84;50.48;98930.94;5974731;29;96872;-61
2023/05/06 05:20:33;;;;;;;;;10.00;9.00;;;;;14.88;50.25;98948.38;6006924;29;96566;-61
2023/05/06 05:23:39;;;;;;;;;12.00;12.00;;;;;14.93;49.83;98943.84;6010775;29;96246;-62
2023/05/06 05:26:42;;;;;;;;;12.00;11.00;;;;;14.79;50.39;98947.16;6009130;29;96330;-61
2023/05/06 05:29:46;;;;;;;;;11.50;10.25;;;;;14.92;49.97;98944.91;6001909;29;96867;-61
2023/05/06 05:32:50;;;;;;;;;10.00;9.50;;;;;14.95;49.87;98941.72;5971634;29;96355;-61
2023/05/06 05:35:54;;;;;;;;;12.00;10.40;;;;;14.99;49.83;98942.88;5974309;29;97775;-61
2023/05/06 05:38:57;;;;;;;;;11.75;10.75;;;;;15.22;49.42;98952.69;5982329;29;98371;-61
2023/05/06 05:42:04;;;;;;;;;11.20;10.40;;;;;15.55;49.25;98954.53;5983594;29;96365;-61
2023/05/06 05:45:10;;;;;;;;;11.00;10.60;;;;;15.65;48.87;98949.22;5998364;29;96285;-61
2023/05/06 05:48:16;;;;;;;;;12.00;12.00;;;;;15.77;48.76;98946.38;5982989;29;96935;-61
2023/05/06 05:51:20;;;;;;;;;10.80;10.20;;;;;15.99;48.33;98952.59;5994332;29;96509;-62
2023/05/06 05:54:24;;;;;;;;;12.00;11.00;;;;;16.12;47.84;98935.91;5964157;29;97523;-61
2023/05/06 05:57:28;;;;;;;;;10.00;9.00;;;;;16.05;47.33;98932.56;5988829;29;97776;-61
2023/05/06 06:00:32;;;;;;;;;11.00;11.00;;;;;15.90;47.57;98927.78;5988766;29;96353;-62
2023/05/06 06:03:45;;;;;;;;;10.60;10.60;;;;;15.93;47.96;98924.53;6003519;29;96622;-61
2023/05/06 06:06:48;;;;;;;;;11.00;9.00;;;;;15.95;47.87;98936.00;5987436;29;97913;-61
2023/05/06 06:09:53;;;;;;;;;10.80;10.00;;;;;16.02;47.62;98935.78;5985615;29;97056;-60
2023/05/06 06:12:56;;;;;;;;;11.40;10.40;;;;;16.01;47.87;98934.16;5985897;29;96291;-61
2023/05/06 06:16:02;;;;;;;;;14.00;12.00;;;;;16.29;47.54;98936.63;5978801;29;96731;-61
2023/05/06 06:19:07;;;;;;;;;10.00;10.00;;;;;16.54;47.37;98924.31;6006576;29;96410;-61
2023/05/06 06:22:11;;;;;;;;;13.00;12.00;;;;;16.77;46.68;98935.69;6004244;29;96784;-61
2023/05/06 06:25:14;;;;;;;;;11.60;11.00;;;;;16.74;45.74;98930.78;5987133;29;96451;-61
2023/05/06 06:28:18;;;;;;;;;9.80;8.80;;;;;16.97;45.83;98931.47;5977236;29;97717;-61
2023/05/06 06:31:22;;;;;;;;;11.00;10.00;;;;;17.27;45.67;98923.50;5997064;29;96756;-60
2023/05/06 06:34:26;;;;;;;;;13.00;12.25;;;;;17.46;45.28;98918.41;5993607;29;96720;-61
2023/05/06 06:37:30;;;;;;;;;10.00;9.00;;;;;17.78;44.66;98921.06;5992043;29;96575;-61
2023/05/06 06:40:33;;;;;;;;;15.00;14.00;;;;;17.97;44.27;98925.75;5991157;29;96858;-61
2023/05/06 06:43:36;;;;;;;;;17.00;14.00;;;;;18.22;43.54;98919.53;5983304;29;96337;-61
2023/05/06 06:46:52;;;;;;;;;10.40;8.40;;;;;18.21;43.19;98922.53;5983106;29;96524;-61
2023/05/06 06:49:56;;;;;;;;;10.50;9.50;;;;;18.38;43.34;98920.34;5983522;29;96314;-62
2023/05/06 06:53:00;;;;;;;;;11.00;10.25;;;;;18.40;42.79;98920.91;5984118;29;96258;-61
2023/05/06 06:56:10;;;;;;;;;10.00;9.80;;;;;18.53;43.14;98903.97;5981986;29;96306;-61
2023/05/06 06:59:14;;;;;;;;;9.00;9.00;;;;;18.66;42.69;98913.59;5979862;29;96716;-61
2023/05/06 07:02:17;;;;;;;;;11.00;10.00;;;;;18.72;42.25;98913.28;5980961;29;96586;-61
2023/05/06 07:05:23;;;;;;;;;11.00;10.25;;;;;18.85;42.16;98918.22;5983429;29;96443;-62
2023/05/06 07:08:26;;;;;;;;;11.00;10.40;;;;;18.85;42.07;98918.22;5983374;29;96416;-62
2023/05/06 07:11:29;;;;;;;;;11.00;10.25;;;;;18.71;41.92;98903.47;5982175;29;98433;-61
2023/05/06 07:14:33;;;;;;;;;11.80;11.80;;;;;18.77;42.02;98905.09;6004386;29;96902;-62
2023/05/06 07:17:36;;;;;;;;;13.00;12.00;;;;;18.62;41.98;98909.78;6006313;29;96320;-61
2023/05/06 07:20:41;;;;;;;;;15.40;15.40;;;;;18.66;42.44;98894.47;5995423;29;96839;-60
2023/05/06 07:23:44;;;;;;;;;11.60;10.00;;;;;18.62;42.28;98899.63;5964595;29;99093;-62
2023/05/06 07:26:48;;;;;;;;;10.20;10.20;;;;;18.53;42.59;98902.09;5984522;29;96352;-61
2023/05/06 07:29:51;;;;;;;;;14.40;14.40;;;;;18.58;42.91;98895.81;5984845;29;97007;-60
2023/05/06 07:32:54;;;;;;;;;12.40;12.00;;;;;18.34;42.69;98891.97;5985927;29;96479;-61
2023/05/06 07:35:59;;;;;;;;;12.00;10.00;;;;;18.46;42.79;98887.88;5986751;29;96318;-61
2023/05/06 07:39:02;;;;;;;;;11.20;10.20;;;;;18.51;42.58;98878.88;5986386;29;96393;-61
2023/05/06 07:42:06;;;;;;;;;9.60;9.60;;;;;18.70;42.45;98884.63;5986238;29;96805;-62
2023/05/06 07:45:10;;;;;;;;;10.00;10.00;;;;;18.95;42.44;98884.59;5984956;29;96963;-62
2023/05/06 07:48:14;;;;;;;;;10.00;10.00;;;;;19.26;41.55;98888.88;5985838;29;96241;-61
2023/05/06 07:51:21;;;;;;;;;12.00;10.60;;;;;19.55;41.66;98891.03;5986955;29;96305;-61
2023/05/06 07:54:24;;;;;;;;;10.00;9.00;;;;;19.48;40.71;98882.28;5986606;29;96497;-61
2023/05/06 07:57:27;;;;;;;;;11.00;8.20;;;;;19.62;40.75;98873.19;5986960;29;96288;-61
2023/05/06 08:00:31;;;;;;;;;11.00;10.00;;;;;19.71;40.45;98879.72;5985489;29;96612;-62
2023/05/06 08:03:35;;;;;;;;;13.00;12.00;;;;;19.77;40.72;98878.59;5987287;29;96335;-61
2023/05/06 08:06:40;;;;;;;;;11.00;10.00;;;;;19.38;40.86;98866.72;5987126;29;96863;-62
2023/05/06 08:09:43;;;;;;;;;13.00;13.00;;;;;19.34;41.60;98869.19;5987947;29;96981;-61
2023/05/06 08:12:47;;;;;;;;;12.40;12.00;;;;;19.44;41.62;98861.00;5986950;29;96345;-61
2023/05/06 08:15:50;;;;;;;;;13.25;13.00;;;;;19.73;41.41;98854.81;5986282;29;97491;-61
2023/05/06 08:18:53;;;;;;;;;12.00;12.00;;;;;19.70;40.93;98850.72;5986900;29;96235;-61
2023/05/06 08:21:58;;;;;;;;;10.00;10.00;;;;;19.82;40.73;98843.00;5985810;29;96245;-62
2023/05/06 08:25:02;;;;;;;;;10.40;10.00;;;;;19.86;40.86;98835.03;5986169;29;97113;-62
2023/05/06 08:28:05;;;;;;;;;14.75;14.00;;;;;20.08;41.06;98834.63;5986057;29;96337;-61
2023/05/06 08:31:09;;;;;;;;;12.00;12.00;;;;;20.07;40.87;98841.22;6000641;29;96791;-61
2023/05/06 08:34:12;;;;;;;;;13.40;12.00;;;;;20.00;41.26;98818.81;5985793;29;96940;-62
2023/05/06 08:37:17;;;;;;;;;13.00;11.60;;;;;20.24;41.16;98822.44;5990579;29;96405;-62
2023/05/06 08:40:23;;;;;;;;;13.40;12.00;;;;;20.41;40.59;98825.63;6009222;29;96283;-61
2023/05/06 08:43:28;;;;;;;;;13.00;13.00;;;;;20.71;40.34;98830.03;6009057;29;96480;-62
2023/05/06 08:46:31;;;;;;;;;15.00;14.00;;;;;21.03;39.67;98826.66;6008247;29;96259;-61
2023/05/06 08:49:35;;;;;;;;;12.60;11.60;;;;;21.41;39.49;98830.34;6008556;29;96352;-61
2023/05/06 08:52:40;;;;;;;;;11.00;9.80;;;;;21.84;38.59;98823.75;6007572;29;96446;-61
2023/05/06 08:55:45;;;;;;;;;10.40;10.40;;;;;22.39;38.08;98824.81;5997534;29;96383;-61
2023/05/06 08:58:51;;;;;;;;;12.00;10.50;;;;;22.74;37.11;98814.34;5996433;29;97004;-62
2023/05/06 09:01:55;;;;;;;;;11.00;11.00;;;;;23.09;36.76;98819.19;5980797;29;96678;-62
2023/05/06 09:04:59;;;;;;;;;9.00;9.00;;;;;23.44;36.17;98816.81;5982141;29;96904;-62
2023/05/06 09:08:06;;;;;;;;;11.00;11.00;;;;;23.56;36.17;98811.63;5973515;29;97088;-62
2023/05/06 09:11:20;;;;;;;;;7.50;7.50;;;;;23.84;35.19;98813.22;5974069;29;97593;-62
2023/05/06 09:14:24;;;;;;;;;10.40;9.40;;;;;24.00;34.70;98814.47;5978749;29;96575;-62
2023/05/06 09:17:31;;;;;;;;;10.20;9.20;;;;;24.25;34.91;98804.00;5980165;29;96559;-62
2023/05/06 09:20:35;;;;;;;;;11.00;11.00;;;;;24.01;34.13;98799.59;5996521;29;98078;-62
2023/05/06 09:23:40;;;;;;;;;8.80;8.80;;;;;24.32;34.83;98791.44;5996223;29;96923;-62
2023/05/06 09:26:45;;;;;;;;;9.00;9.00;;;;;24.79;34.44;98792.66;5974401;29;96368;-64
2023/05/06 09:30:00;;;;;;;;;11.00;9.00;;;;;25.14;33.79;98779.06;5988506;29;96314;-64
2023/05/06 09:33:04;;;;;;;;;9.00;8.50;;;;;25.34;33.56;98772.94;5974616;29;96508;-64
2023/05/06 09:36:12;;;;;;;;;10.60;9.20;;;;;25.50;33.08;98765.03;5973446;29;96529;-64
2023/05/06 09:39:16;;;;;;;;;11.50;10.50;;;;;25.32;32.60;98769.69;5973085;29;96831;-63
2023/05/06 09:42:22;;;;;;;;;12.60;12.60;;;;;25.06;33.72;98752.25;6011261;29;97807;-63
2023/05/06 09:45:27;;;;;;;;;10.00;9.40;;;;;24.85;33.87;98755.56;6006674;29;96717;-63
2023/05/06 09:48:30;;;;;;;;;10.00;8.60;;;;;24.72;34.09;98745.47;5995519;29;96632;-64
2023/05/06 09:51:34;;;;;;;;;9.40;8.40;;;;;24.87;33.53;98735.97;5996743;29;96345;-63
2023/05/06 09:54:39;;;;;;;;;9.75;8.75;;;;;25.16;33.68;98736.22;5997341;29;96313;-63
2023/05/06 09:57:44;;;;;;;;;8.00;8.00;;;;;25.54;34.05;98724.59;5994251;29;97319;-64
2023/05/06 10:00:49;;;;;;;;;10.60;10.60;;;;;25.76;32.93;98711.47;5973654;29;96496;-64
2023/05/06 10:03:54;;;;;;;;;9.60;9.00;;;;;25.72;32.44;98707.75;5971669;29;96756;-63
2023/05/06 10:06:59;;;;;;;;;9.00;9.00;;;;;25.61;32.66;98700.91;5972181;29;96423;-64
2023/05/06 10:10:09;;;;;;;;;11.60;11.00;;;;;26.04;33.55;98687.09;5970586;29;96780;-63
2023/05/06 10:13:13;;;;;;;;;11.00;9.25;;;;;26.28;31.90;98687.38;5970100;29;96699;-63
2023/05/06 10:16:18;;;;;;;;;12.50;11.50;;;;;26.33;31.94;98672.59;5971740;29;96584;-63
2023/05/06 10:19:25;;;;;;;;;14.40;13.40;;;;;26.27;32.65;98666.41;5971198;29;98375;-64
2023/05/06 10:22:38;;;;;;;;;11.00;11.00;;;;;26.24;31.64;98660.75;5971991;29;96570;-64
2023/05/06 10:25:45;;;;;;;;;10.25;9.75;;;;;25.89;32.55;98654.47;5969211;29;96610;-64
2023/05/06 10:28:53;;;;;;;;;10.00;10.00;;;;;25.66;32.98;98645.53;5969924;29;96734;-63
2023/05/06 10:31:57;;;;;;;;;11.50;11.00;;;;;25.46;33.00;98640.66;5967894;29;97575;-64
2023/05/06 10:35:10;;;;;;;;;11.00;10.00;;;;;25.03;33.28;98635.91;5968418;29;97494;-64
2023/05/06 10:38:19;;;;;;;;;12.25;11.25;;;;;24.71;34.32;98649.28;5985642;29;96886;-62
2023/05/06 10:41:26;;;;;;;;;10.60;10.60;;;;;24.30;35.01;98639.38;5972206;29;96644;-64
2023/05/06 10:44:57;;;;;;;;;12.00;11.40;;;;;24.16;35.76;98635.88;5971754;29;96959;-64
2023/05/06 10:48:08;;;;;;;;;10.40;10.00;;;;;24.02;37.02;98640.69;5971580;29;97057;-64
2023/05/06 10:51:27;;;;;;;;;14.00;13.60;;;;;23.88;37.65;98634.44;5972145;29;96364;-64
2023/05/06 10:54:30;;;;;;;;;13.40;12.00;;;;;23.86;38.38;98639.44;5976852;29;96805;-64
2023/05/06 10:57:41;;;;;;;;;13.00;12.00;;;;;23.73;40.21;98650.22;5969493;29;97076;-64
2023/05/06 11:00:53;;;;;;;;;15.00;14.00;;;;;23.64;40.89;98651.28;5968678;29;97969;-64
2023/05/06 11:03:57;;;;;;;;;14.20;13.80;;;;;23.47;41.05;98665.72;5980009;29;96561;-64
2023/05/06 11:07:08;;;;;;;;;13.40;13.00;;;;;23.38;40.71;98673.06;5975850;29;96589;-64
2023/05/06 11:10:11;;;;;;;;;14.00;13.00;;;;;23.21;41.51;98697.66;5974788;29;96703;-64
2023/05/06 11:13:23;;;;;;;;;17.00;16.00;;;;;23.06;42.36;98709.00;5974927;29;97217;-64
2023/05/06 11:16:46;;;;;;;;;18.00;16.00;;;;;22.92;42.77;98730.19;5974325;29;96751;-64
2023/05/06 11:19:50;;;;;;;;;35.00;30.00;;;;;22.76;44.54;98727.75;5985382;29;98581;-64
2023/05/06 11:22:54;;;;;;;;;21.20;19.60;;;;;22.59;45.84;98721.97;5973749;29;96996;-64
2023/05/06 11:25:59;;;;;;;;;15.00;14.00;;;;;22.48;46.92;98732.34;5961118;29;96656;-64
2023/05/06 11:29:06;;;;;;;;;13.00;13.00;;;;;22.35;46.00;98738.63;5969472;29;98620;-64
2023/05/06 11:32:22;;;;;;;;;13.50;13.50;;;;;22.24;47.63;98728.13;5970862;29;96845;-64
2023/05/06 11:35:34;;;;;;;;;16.00;15.00;;;;;22.17;48.21;98727.72;5987940;29;97088;-64
2023/05/06 11:38:42;;;;;;;;;18.00;17.00;;;;;22.09;48.13;98726.44;5973369;29;97674;-65
2023/05/06 11:41:45;;;;;;;;;19.00;17.00;;;;;21.97;49.00;98726.13;5976271;29;97089;-64
2023/05/06 11:44:50;;;;;;;;;18.60;16.60;;;;;21.86;49.01;98710.91;5975879;29;96527;-65
2023/05/06 11:47:54;;;;;;;;;17.00;16.00;;;;;21.76;49.50;98714.63;5973542;29;96993;-65
2023/05/06 11:50:58;;;;;;;;;19.00;16.75;;;;;21.65;50.64;98728.81;5971720;29;96370;-63
2023/05/06 11:54:06;;;;;;;;;20.40;19.00;;;;;21.52;50.69;98739.41;5973179;29;96589;-63
2023/05/06 11:57:10;;;;;;;;;19.00;18.00;;;;;21.40;51.14;98744.53;5988556;29;97037;-63
2023/05/06 12:00:17;;;;;;;;;18.60;17.40;;;;;21.26;52.00;98754.56;5974214;29;96494;-64
2023/05/06 12:03:22;;;;;;;;;18.00;17.00;;;;;21.10;52.33;98753.13;5975532;29;97023;-64
2023/05/06 12:06:34;;;;;;;;;18.40;17.40;;;;;21.04;53.21;98770.75;5989937;29;96577;-64
2023/05/06 12:09:41;;;;;;;;;20.50;17.00;;;;;20.94;54.01;98760.72;5972603;29;97307;-63
2023/05/06 12:12:45;;;;;;;;;16.40;16.00;;;;;20.91;55.22;98768.72;5974118;29;98101;-64
2023/05/06 12:15:50;;;;;;;;;16.25;15.75;;;;;20.86;54.92;98761.38;5974928;29;96429;-63
2023/05/06 12:18:54;;;;;;;;;16.20;15.00;;;;;20.77;56.06;98748.59;5975487;29;96351;-64
2023/05/06 12:22:14;;;;;;;;;19.00;18.00;;;;;20.76;56.41;98745.03;5974350;29;97092;-63
2023/05/06 12:25:18;;;;;;;;;17.50;17.50;;;;;20.73;57.25;98738.22;5974171;29;98475;-63
2023/05/06 12:28:22;;;;;;;;;18.00;17.00;;;;;20.72;56.47;98731.09;5975305;29;96997;-63
2023/05/06 12:31:27;;;;;;;;;18.25;17.00;;;;;20.61;56.56;98721.38;5975079;29;96426;-63
2023/05/06 12:34:36;;;;;;;;;15.20;15.20;;;;;20.57;56.89;98711.28;5958636;29;97269;-63
2023/05/06 12:37:39;;;;;;;;;16.00;15.00;;;;;20.54;57.09;98703.63;5973552;29;96679;-64
2023/05/06 12:40:44;;;;;;;;;20.00;17.60;;;;;20.54;57.61;98711.84;5974692;29;96528;-64
2023/05/06 12:43:47;;;;;;;;;18.00;17.00;;;;;20.25;57.90;98711.84;5974830;29;96335;-64
2023/05/06 12:46:52;;;;;;;;;18.00;17.00;;;;;20.17;58.64;98698.81;5974891;29;96345;-64
2023/05/06 12:49:57;;;;;;;;;18.00;18.00;;;;;20.16;58.94;98717.13;5973476;29;96347;-64
2023/05/06 12:53:12;;;;;;;;;18.00;17.00;;;;;20.09;58.70;98710.34;5973718;29;96440;-64
2023/05/06 12:56:15;;;;;;;;;17.60;17.00;;;;;20.04;59.54;98703.00;5973686;29;96934;-64
2023/05/06 12:59:18;;;;;;;;;18.00;17.20;;;;;20.00;59.98;98703.88;5973116;29;96606;-64
2023/05/06 13:02:23;;;;;;;;;20.00;18.00;;;;;19.97;58.96;98702.53;5987913;29;96438;-64
2023/05/06 13:05:27;;;;;;;;;16.00;15.80;;;;;19.88;59.54;98704.25;5973501;29;96406;-64
2023/05/06 13:08:30;;;;;;;;;19.75;19.00;;;;;19.72;60.73;98697.28;5974080;29;96901;-64
2023/05/06 13:11:33;;;;;;;;;22.50;22.00;;;;;19.54;60.17;98671.44;5972658;29;98322;-64
2023/05/06 13:14:37;;;;;;;;;19.60;18.60;;;;;19.44;61.00;98687.91;5973906;29;96326;-64
2023/05/06 13:17:43;;;;;;;;;20.60;20.00;;;;;19.35;61.83;98678.66;5974115;29;97566;-64
2023/05/06 13:20:47;;;;;;;;;22.00;21.00;;;;;19.33;61.61;98689.88;5972157;29;96736;-64
2023/05/06 13:23:50;;;;;;;;;22.00;21.00;;;;;19.30;62.40;98678.69;5987691;29;96260;-64
2023/05/06 13:26:55;;;;;;;;;21.00;20.00;;;;;19.36;62.20;98681.09;5973873;29;96950;-64
2023/05/06 13:29:58;;;;;;;;;21.00;19.40;;;;;19.35;62.64;98682.19;5972903;29;96397;-64
2023/05/06 13:33:03;;;;;;;;;23.60;20.60;;;;;19.27;62.56;98691.00;5973934;29;97484;-63
2023/05/06 13:36:07;;;;;;;;;21.00;18.60;;;;;19.19;63.11;98688.03;5988571;29;96887;-63
2023/05/06 13:39:10;;;;;;;;;21.75;20.75;;;;;19.11;63.86;98675.00;5966631;29;97690;-64
2023/05/06 13:42:14;;;;;;;;;22.00;19.80;;;;;19.03;64.92;98670.91;5973143;29;96882;-64
2023/05/06 13:45:17;;;;;;;;;20.00;19.00;;;;;18.73;66.28;98671.88;5973645;29;96414;-64
2023/05/06 13:48:22;;;;;;;;;23.40;22.00;;;;;18.78;66.01;98695.63;5973326;29;97283;-64
2023/05/06 13:51:29;;;;;;;;;24.00;23.00;;;;;18.81;66.78;98693.16;5987760;29;96671;-64
2023/05/06 13:54:33;;;;;;;;;23.40;22.00;;;;;18.88;65.09;98671.81;5973956;29;96912;-64
2023/05/06 13:57:36;;;;;;;;;21.20;19.60;;;;;18.80;66.14;98653.28;5971972;29;96926;-64
2023/05/06 14:00:40;;;;;;;;;24.00;23.00;;;;;18.90;65.45;98672.34;5973397;29;98061;-64
2023/05/06 14:03:45;;;;;;;;;23.00;22.00;;;;;18.94;65.97;98697.19;5973524;29;96431;-64
2023/05/06 14:06:48;;;;;;;;;23.50;21.00;;;;;18.96;66.34;98678.63;5973215;29;97413;-64
2023/05/06 14:09:51;;;;;;;;;24.40;21.00;;;;;18.89;66.15;98670.72;5973344;29;96453;-64
2023/05/06 14:12:55;;;;;;;;;24.60;23.40;;;;;18.94;65.59;98692.56;5971297;29;96724;-64
2023/05/06 14:15:59;;;;;;;;;21.00;19.00;;;;;18.69;66.06;98648.13;5973271;29;96291;-64